Crowder, MS (38622)

9:46 AM CDT on October 23, 2014 (GMT -0500)
Fletcher | Change Station
CLOSE
Current Station
Airport
Location: Clarksdale Fletcher Field Air,
Elevation: 174 ft
Nearby Weather Stations

Elev 174 ft 34.30 °N, 90.51 °W | Updated 11 minutes ago

Clear
Clear
54 °F
Feels Like 54 °F
N
6
Wind Variable Wind from East

Today
High -- | Low -- °F
--% Chance of Precip.
Yesterday
High -- | Low -- °F
Precip. -- in
7:12 AM 6:16 PM
Waning Crescent, 0% visible
Pressure 30.22 in
Visibility 10.0 miles
Clouds Clear
Dew Point 48 °F
Humidity 82%
Rainfall 0.00 in
Snow Depth Not available.
UV 2 out of 12
Pollen 1.30 out of 12
Air Quality Not available.
Flu Activity No Activity
METAR KCKM 231435Z AUTO 08005KT 10SM CLR 12/09 A3022 RMK AO1

More Conditions Fewer Conditions

Pressure 30.22 in
Visibility 10.0 miles
Clouds Clear
Dew Point 48 °F
Humidity 82%
Rainfall 0.00 in
Snow Depth Not available.
UV 2 out of 12
Pollen 1.30 out of 12
Air Quality Not available.
Flu Activity No Activity
METAR KCKM 231435Z AUTO 08005KT 10SM CLR 12/09 A3022 RMK AO1

More Conditions Fewer Conditions

10-Day Weather Forecast

Almanac

Astronomy

Oct. 23, 2014 Rise Set
Actual Time 7:12 AM CDT 6:16 PM CDT
Civil Twilight 6:46 AM CDT 6:42 PM CDT
Nautical Twilight 6:17 AM CDT 7:11 PM CDT
Astronomical Twilight 5:48 AM CDT 7:40 PM CDT
Moon 6:53 AM CDT 6:18 PM CDT
Length of Visible Light 11h 55m
Length of Day
11h 04m
Tomorrow will be 1m 58s shorter.
Waning Crescent, 0% of the Moon is Illuminated
Today
Waning Crescent
Oct 23
New
Oct 30
First Quarter
Nov 6
Full
Nov 14
Last Quarter

Today's Extremes

State Highs State Lows

Community

WunderPhotos

Upload Photos

1,764,272 photos uploaded!

WunderBlogs® & News

Nearby

Snow Depth

Station Depth Elevation
No new snow has been reported.

Earthquake Activity

City Distance Mag. Time & Date
No recent earthquake activity has been reported nearby.
Minimum magnitude displayed is 2.5.

Coastal Water Temperatures

Place Temperature
No Stations Reporting

Nearby Weather Stations